Time;durP1;ratioP1;P1;durP2;ratioP2;P2;SDS_P1;SDS_P2;PMS_P1;PMS_P2;Temp;Humidity;BMP_temperature;BMP_pressure;BME280_temperature;BME280_humidity;BME280_pressure;Samples;Min_cycle;Max_cycle;Signal;HPM_P1;HPM_P2
2021/12/11 00:02:27;;;;;;;20.02;10.32;;;-0.30;99.90;;;;;;4823357;29;20416;-87
2021/12/11 00:04:57;;;;;;;17.23;9.32;;;-0.40;99.90;;;;;;4824417;29;20466;-86
2021/12/11 00:07:29;;;;;;;17.27;8.70;;;-0.40;99.90;;;;;;4823202;29;21039;-88
2021/12/11 00:10:19;;;;;;;22.13;9.83;;;-0.30;99.90;;;;;;4823495;29;20458;-87
2021/12/11 00:12:55;;;;;;;19.83;8.95;;;-0.40;99.90;;;;;;4823808;29;20415;-87
2021/12/11 00:15:28;;;;;;;14.53;7.33;;;-0.30;99.90;;;;;;4823112;29;20465;-87
2021/12/11 00:18:07;;;;;;;14.90;7.60;;;-0.30;99.90;;;;;;4823245;29;20422;-87
2021/12/11 00:20:41;;;;;;;11.63;6.38;;;-0.30;99.90;;;;;;4822816;29;20904;-87
2021/12/11 00:23:09;;;;;;;12.48;6.53;;;-0.30;99.90;;;;;;4822969;29;20412;-87
2021/12/11 00:25:44;;;;;;;11.40;6.30;;;-0.30;99.90;;;;;;4823989;29;20441;-87
2021/12/11 00:28:12;;;;;;;11.95;6.30;;;-0.30;99.90;;;;;;4823017;29;20404;-88
2021/12/11 00:30:43;;;;;;;12.13;6.68;;;-0.30;99.90;;;;;;4823216;29;20416;-87
2021/12/11 00:33:24;;;;;;;12.93;6.95;;;-0.30;99.90;;;;;;4808170;29;20419;-87
2021/12/11 00:35:55;;;;;;;15.60;7.57;;;-0.30;99.90;;;;;;4823958;29;20749;-87
2021/12/11 00:38:33;;;;;;;13.93;6.93;;;-0.30;99.90;;;;;;4824035;29;20408;-87
2021/12/11 00:41:07;;;;;;;14.75;7.80;;;-0.30;99.90;;;;;;4822756;29;20434;-86
2021/12/11 00:43:37;;;;;;;15.75;7.65;;;-0.30;99.90;;;;;;4823010;29;20412;-86
2021/12/11 00:46:07;;;;;;;16.13;7.93;;;-0.30;99.90;;;;;;4823931;29;20408;-87
2021/12/11 00:48:35;;;;;;;17.17;8.80;;;-0.30;99.90;;;;;;4838261;29;20412;-87
2021/12/11 00:51:13;;;;;;;18.92;9.10;;;-0.30;99.90;;;;;;4807789;29;20499;-87
2021/12/11 00:53:57;;;;;;;20.00;9.80;;;-0.30;99.90;;;;;;4822886;29;20482;-87
2021/12/11 00:56:38;;;;;;;18.25;9.45;;;-0.30;99.90;;;;;;4822719;29;20768;-86
2021/12/11 00:59:12;;;;;;;14.97;8.17;;;-0.30;99.90;;;;;;4822188;29;20420;-86
2021/12/11 01:01:53;;;;;;;19.75;9.25;;;-0.30;99.90;;;;;;4822530;29;20428;-86
2021/12/11 01:04:26;;;;;;;15.43;8.88;;;-0.30;99.90;;;;;;4822461;29;20495;-87
2021/12/11 01:07:15;;;;;;;17.08;8.55;;;-0.20;99.90;;;;;;4822453;29;20920;-87
2021/12/11 01:09:59;;;;;;;16.10;8.50;;;-0.20;99.90;;;;;;4823758;29;20400;-87
2021/12/11 01:12:47;;;;;;;20.98;10.02;;;-0.20;99.90;;;;;;4822240;29;20416;-87
2021/12/11 01:15:26;;;;;;;16.58;8.50;;;-0.20;99.90;;;;;;4822329;29;20412;-86
2021/12/11 01:21:01;;;;;;;17.67;9.07;;;-0.20;99.90;;;;;;4822483;29;20576;-87
2021/12/11 01:23:47;;;;;;;19.02;8.77;;;-0.20;99.90;;;;;;4807213;29;20418;-87
2021/12/11 01:26:22;;;;;;;17.35;8.57;;;-0.20;99.90;;;;;;4822342;29;20404;-86
2021/12/11 01:28:51;;;;;;;18.05;8.55;;;-0.20;99.90;;;;;;4837560;29;20441;-87
2021/12/11 01:31:20;;;;;;;18.02;8.25;;;-0.20;99.90;;;;;;4822329;29;20899;-87
2021/12/11 01:33:49;;;;;;;17.60;8.27;;;-0.10;99.90;;;;;;4821415;29;20810;-84
2021/12/11 01:36:18;;;;;;;16.07;7.93;;;-0.10;99.90;;;;;;4826792;29;20425;-86
2021/12/11 01:38:46;;;;;;;13.52;7.47;;;-0.10;99.90;;;;;;4806031;29;20420;-87
2021/12/11 01:41:18;;;;;;;17.83;8.60;;;-0.20;99.90;;;;;;4814922;29;20418;-86
2021/12/11 01:43:52;;;;;;;18.25;9.02;;;-0.10;99.90;;;;;;4804350;29;20405;-86
2021/12/11 01:46:23;;;;;;;13.10;7.53;;;-0.10;99.90;;;;;;4807620;29;20421;-87
2021/12/11 01:48:58;;;;;;;16.00;7.95;;;-0.10;99.90;;;;;;4821688;29;20407;-87
2021/12/11 01:51:36;;;;;;;13.63;7.28;;;-0.10;99.90;;;;;;4822218;29;20491;-88
2021/12/11 01:54:19;;;;;;;17.02;8.15;;;-0.10;99.90;;;;;;4821808;29;20412;-86
2021/12/11 01:56:52;;;;;;;17.00;8.65;;;-0.10;99.90;;;;;;4825754;29;20412;-87
2021/12/11 01:59:25;;;;;;;14.30;7.73;;;-0.10;99.90;;;;;;4825568;29;20912;-87
2021/12/11 02:02:03;;;;;;;12.40;6.75;;;-0.10;99.90;;;;;;4826446;29;20419;-87
2021/12/11 02:04:42;;;;;;;15.63;7.57;;;-0.10;99.90;;;;;;4826665;29;20400;-86
2021/12/11 02:07:16;;;;;;;12.05;6.65;;;-0.10;99.90;;;;;;4807342;29;20459;-87
2021/12/11 02:09:50;;;;;;;13.80;6.80;;;-0.10;99.90;;;;;;4822376;29;20694;-87
2021/12/11 02:12:23;;;;;;;10.88;6.22;;;-0.10;99.90;;;;;;4797956;29;20495;-87
2021/12/11 02:14:54;;;;;;;12.57;6.05;;;-0.10;99.90;;;;;;4825419;29;20468;-87
2021/12/11 02:17:28;;;;;;;11.90;6.38;;;-0.10;99.90;;;;;;4825306;29;20879;-86
2021/12/11 02:19:59;;;;;;;13.25;6.30;;;-0.10;99.90;;;;;;4825394;29;20443;-87
2021/12/11 02:22:32;;;;;;;12.32;6.45;;;-0.10;99.90;;;;;;4825105;29;20428;-86
2021/12/11 02:25:05;;;;;;;16.02;7.63;;;-0.10;99.90;;;;;;4810226;29;20443;-87
2021/12/11 02:27:40;;;;;;;11.63;5.77;;;-0.10;99.90;;;;;;4825211;29;20472;-86
2021/12/11 02:30:22;;;;;;;13.52;6.47;;;-0.10;99.90;;;;;;4824880;29;20424;-87
2021/12/11 02:32:52;;;;;;;15.00;7.63;;;-0.10;99.90;;;;;;4825030;29;20408;-86
2021/12/11 02:35:36;;;;;;;11.23;6.18;;;-0.10;99.90;;;;;;4824851;29;20411;-86
2021/12/11 02:38:14;;;;;;;13.93;7.00;;;-0.10;99.90;;;;;;4824872;29;20412;-87
2021/12/11 02:40:48;;;;;;;11.77;6.55;;;-0.10;99.90;;;;;;4824982;29;20416;-86
2021/12/11 02:43:31;;;;;;;11.18;6.40;;;-0.10;99.90;;;;;;4824481;29;20428;-88
2021/12/11 02:46:02;;;;;;;11.50;6.23;;;-0.10;99.90;;;;;;4824598;29;20408;-86
2021/12/11 02:48:41;;;;;;;13.23;6.77;;;-0.10;99.90;;;;;;4809618;29;20428;-86
2021/12/11 02:51:32;;;;;;;14.10;7.20;;;0.00;99.90;;;;;;4824432;29;20774;-86
2021/12/11 02:54:27;;;;;;;17.75;7.50;;;0.00;99.90;;;;;;4824337;29;20435;-87
2021/12/11 02:57:01;;;;;;;13.45;6.63;;;0.00;99.90;;;;;;4824520;29;20412;-87
2021/12/11 02:59:32;;;;;;;14.23;7.05;;;0.00;99.90;;;;;;4809251;29;20911;-87
2021/12/11 03:02:16;;;;;;;13.57;6.80;;;0.00;99.90;;;;;;4824628;29;20431;-87
2021/12/11 03:04:51;;;;;;;12.98;5.88;;;0.00;99.90;;;;;;4824250;29;20507;-87
2021/12/11 03:07:24;;;;;;;10.70;5.28;;;0.00;99.90;;;;;;4823076;29;20460;-86
2021/12/11 03:09:55;;;;;;;11.75;5.72;;;0.00;99.90;;;;;;4824509;29;20895;-87
2021/12/11 03:12:24;;;;;;;9.68;5.28;;;0.00;99.90;;;;;;4824198;29;20419;-86
2021/12/11 03:14:52;;;;;;;10.57;5.40;;;0.00;99.90;;;;;;4809163;29;20404;-86
2021/12/11 03:17:23;;;;;;;9.80;5.10;;;0.00;99.90;;;;;;4823811;29;20423;-86
2021/12/11 03:19:52;;;;;;;8.02;4.53;;;0.00;99.90;;;;;;4806126;29;20426;-87
2021/12/11 03:22:31;;;;;;;10.02;4.70;;;0.00;99.90;;;;;;4806049;29;20429;-86
2021/12/11 03:25:08;;;;;;;11.20;5.20;;;0.00;99.90;;;;;;4805840;29;20410;-87
2021/12/11 03:27:35;;;;;;;8.07;4.53;;;0.00;99.90;;;;;;4806951;29;20406;-87
2021/12/11 03:30:11;;;;;;;9.15;4.75;;;0.00;99.90;;;;;;4791469;29;20758;-87
2021/12/11 03:32:39;;;;;;;10.23;5.25;;;0.00;99.90;;;;;;4805812;29;20418;-87
2021/12/11 03:35:08;;;;;;;10.43;5.18;;;0.00;99.90;;;;;;4790732;29;20989;-87
2021/12/11 03:37:36;;;;;;;7.80;4.47;;;0.00;99.90;;;;;;4805536;29;20417;-86
2021/12/11 03:40:05;;;;;;;7.97;4.10;;;0.00;99.90;;;;;;4805609;29;20401;-87
2021/12/11 03:42:36;;;;;;;8.02;4.18;;;0.00;99.90;;;;;;4806684;29;20486;-87
2021/12/11 03:45:14;;;;;;;7.68;3.97;;;0.00;99.90;;;;;;4805519;29;20416;-88
2021/12/11 03:47:47;;;;;;;6.93;3.97;;;0.00;99.90;;;;;;4805737;29;20493;-87
2021/12/11 03:50:18;;;;;;;8.48;4.30;;;0.00;99.90;;;;;;4805400;29;20437;-87
2021/12/11 03:52:50;;;;;;;11.45;5.50;;;0.00;99.90;;;;;;4806593;29;20432;-87
2021/12/11 03:55:23;;;;;;;10.02;5.10;;;0.00;99.90;;;;;;4790361;29;20483;-88
2021/12/11 03:57:57;;;;;;;7.95;4.43;;;0.00;99.90;;;;;;4805343;29;20574;-86
2021/12/11 04:00:30;;;;;;;10.55;5.18;;;0.00;99.90;;;;;;4808351;29;20416;-87
2021/12/11 04:03:04;;;;;;;9.70;4.90;;;0.00;99.90;;;;;;4823240;29;20428;-87
2021/12/11 04:05:34;;;;;;;8.85;5.05;;;0.00;99.90;;;;;;4822471;29;20428;-87
2021/12/11 04:08:06;;;;;;;6.80;4.07;;;0.10;99.90;;;;;;4823105;29;20485;-87
2021/12/11 04:10:34;;;;;;;12.43;5.55;;;0.10;99.90;;;;;;4823189;29;20404;-87
2021/12/11 04:13:06;;;;;;;9.55;4.63;;;0.10;99.90;;;;;;4823328;29;20415;-87
2021/12/11 04:15:35;;;;;;;8.50;4.83;;;0.10;99.90;;;;;;4823181;29;20408;-87
2021/12/11 04:18:03;;;;;;;9.13;4.80;;;0.10;99.90;;;;;;4838183;29;20527;-86
2021/12/11 04:20:33;;;;;;;10.43;4.80;;;0.10;99.90;;;;;;4822989;29;20451;-87
2021/12/11 04:23:01;;;;;;;7.80;4.50;;;0.10;99.90;;;;;;4823112;29;20904;-86
2021/12/11 04:25:29;;;;;;;5.93;3.65;;;0.10;99.90;;;;;;4823029;29;20503;-87
2021/12/11 04:27:58;;;;;;;10.68;5.15;;;0.10;99.90;;;;;;4823231;29;20415;-85
2021/12/11 04:30:27;;;;;;;9.00;4.85;;;0.10;99.90;;;;;;4824113;29;20400;-87
2021/12/11 04:32:57;;;;;;;9.43;5.03;;;0.10;99.90;;;;;;4823262;29;20411;-86
2021/12/11 04:35:29;;;;;;;11.05;4.90;;;0.10;99.90;;;;;;4822709;29;20427;-86
2021/12/11 04:38:01;;;;;;;10.05;5.03;;;0.10;99.90;;;;;;4823834;29;20415;-87
2021/12/11 04:40:34;;;;;;;9.82;4.45;;;0.10;99.90;;;;;;4807777;29;20477;-86
2021/12/11 04:43:10;;;;;;;8.18;4.30;;;0.10;99.90;;;;;;4807880;29;20716;-86
2021/12/11 04:45:49;;;;;;;8.63;4.53;;;0.10;99.90;;;;;;4819358;29;20457;-86
2021/12/11 04:49:09;;;;;;;7.38;4.10;;;0.20;99.90;;;;;;4819434;29;20463;-87
2021/12/11 04:51:21;;;;;;;10.00;4.93;;;0.20;99.90;;;;;;4804976;29;20494;-87
2021/12/11 04:54:09;;;;;;;7.65;3.97;;;0.20;99.90;;;;;;4804353;29;20405;-87
2021/12/11 04:57:21;;;;;;;7.45;4.57;;;0.20;99.90;;;;;;4789407;29;20905;-86
2021/12/11 05:10:26;;;;;;;11.73;5.53;;;0.20;99.90;;;;;;4825573;29;20957;-86
2021/12/11 05:12:58;;;;;;;8.82;5.15;;;0.10;99.90;;;;;;4822552;29;20501;-86
2021/12/11 05:15:36;;;;;;;9.52;4.65;;;0.10;99.90;;;;;;4837437;29;20415;-86
2021/12/11 05:18:09;;;;;;;9.30;4.70;;;0.20;99.90;;;;;;4807277;29;20455;-87
2021/12/11 05:20:38;;;;;;;8.05;4.50;;;0.20;99.90;;;;;;4807352;29;20420;-87
2021/12/11 05:23:06;;;;;;;8.15;4.53;;;0.20;99.90;;;;;;4823345;29;20760;-85
2021/12/11 05:25:34;;;;;;;8.52;4.75;;;0.20;99.90;;;;;;4822256;29;20408;-86
2021/12/11 05:28:02;;;;;;;10.77;5.03;;;0.20;99.90;;;;;;4822012;29;20411;-86
2021/12/11 05:30:34;;;;;;;10.10;5.35;;;0.20;99.90;;;;;;4821602;29;20415;-86
2021/12/11 05:33:03;;;;;;;13.18;6.13;;;0.20;99.90;;;;;;4806894;29;20906;-86
2021/12/11 05:35:34;;;;;;;9.30;4.90;;;0.20;99.90;;;;;;4822651;29;20408;-86
2021/12/11 05:38:04;;;;;;;9.35;5.03;;;0.20;99.90;;;;;;4822531;29;20415;-86
2021/12/11 05:40:33;;;;;;;12.43;5.85;;;0.20;99.90;;;;;;4806991;29;20424;-86
2021/12/11 05:43:02;;;;;;;11.45;5.93;;;0.20;99.90;;;;;;4823072;29;20493;-86
2021/12/11 05:45:29;;;;;;;11.43;5.88;;;0.20;99.90;;;;;;4822936;29;20461;-86
2021/12/11 05:47:57;;;;;;;9.80;5.68;;;0.20;99.90;;;;;;4821964;29;20420;-86
2021/12/11 05:50:40;;;;;;;12.52;6.32;;;0.20;99.90;;;;;;4823077;29;20465;-86
2021/12/11 05:53:08;;;;;;;14.40;6.03;;;0.20;99.90;;;;;;4823109;29;20499;-86
2021/12/11 05:55:38;;;;;;;11.25;5.93;;;0.20;99.90;;;;;;4806770;29;20498;-86
2021/12/11 05:58:11;;;;;;;12.27;6.15;;;0.20;99.90;;;;;;4806747;29;21010;-86
2021/12/11 06:00:47;;;;;;;7.85;4.93;;;0.20;99.90;;;;;;4821839;29;20420;-85
2021/12/11 06:03:15;;;;;;;10.27;5.63;;;0.20;99.90;;;;;;4821761;29;20416;-87
2021/12/11 06:05:44;;;;;;;9.40;5.00;;;0.20;99.90;;;;;;4806732;29;20464;-86
2021/12/11 06:08:12;;;;;;;9.07;5.07;;;0.20;99.90;;;;;;4821783;29;20420;-86
2021/12/11 06:10:41;;;;;;;11.48;5.68;;;0.20;99.90;;;;;;4821758;29;20408;-86
2021/12/11 06:13:10;;;;;;;9.15;5.22;;;0.20;99.90;;;;;;4821828;29;20476;-86
2021/12/11 06:15:39;;;;;;;8.02;4.85;;;0.20;99.90;;;;;;4821786;29;20490;-86
2021/12/11 06:18:10;;;;;;;12.55;5.85;;;0.20;99.90;;;;;;4836635;29;20408;-86
2021/12/11 06:20:37;;;;;;;10.02;5.55;;;0.20;99.90;;;;;;4806767;29;20423;-86
2021/12/11 06:23:08;;;;;;;8.57;4.80;;;0.20;99.90;;;;;;4821583;29;20424;-86
2021/12/11 06:25:36;;;;;;;8.77;4.80;;;0.30;99.90;;;;;;4806776;29;20419;-86
2021/12/11 06:28:05;;;;;;;8.23;4.68;;;0.20;99.90;;;;;;4806498;29;20431;-86
2021/12/11 06:30:34;;;;;;;9.90;5.23;;;0.30;99.90;;;;;;4805615;29;20420;-85
2021/12/11 06:33:03;;;;;;;10.77;5.35;;;0.30;99.90;;;;;;4836508;29;20472;-86
2021/12/11 06:35:39;;;;;;;8.27;4.63;;;0.30;99.90;;;;;;4821603;29;20461;-86
2021/12/11 06:38:10;;;;;;;11.07;5.57;;;0.30;99.90;;;;;;4821555;29;20419;-86
2021/12/11 06:40:38;;;;;;;9.50;4.95;;;0.30;99.90;;;;;;4821583;29;20482;-86
2021/12/11 06:43:05;;;;;;;8.35;4.82;;;0.30;99.90;;;;;;4824158;29;20426;-86
2021/12/11 06:45:33;;;;;;;10.95;5.72;;;0.30;99.90;;;;;;4824267;29;20776;-86
2021/12/11 06:48:01;;;;;;;7.88;4.68;;;0.30;99.90;;;;;;4824603;29;20476;-86
2021/12/11 06:50:28;;;;;;;8.40;4.90;;;0.30;99.90;;;;;;4824357;29;20404;-86
2021/12/11 06:52:58;;;;;;;8.30;4.97;;;0.30;99.90;;;;;;4824412;29;20457;-86
2021/12/11 06:55:26;;;;;;;9.90;4.97;;;0.30;99.90;;;;;;4824546;29;20423;-85
2021/12/11 06:57:53;;;;;;;9.32;4.63;;;0.30;99.90;;;;;;4822728;29;20432;-85
2021/12/11 07:00:26;;;;;;;7.72;4.30;;;0.30;99.90;;;;;;4823957;29;20890;-86
2021/12/11 07:02:53;;;;;;;7.32;4.07;;;0.30;99.90;;;;;;4823736;29;20428;-86
2021/12/11 07:05:21;;;;;;;6.38;3.78;;;0.30;99.90;;;;;;4818065;29;20404;-84
2021/12/11 07:07:49;;;;;;;6.70;3.60;;;0.40;99.90;;;;;;4816661;29;20408;-86
2021/12/11 07:10:20;;;;;;;6.20;3.50;;;0.40;99.90;;;;;;4831195;29;20439;-86
2021/12/11 07:12:49;;;;;;;7.88;4.05;;;0.30;99.90;;;;;;4817072;29;20427;-86
2021/12/11 07:15:18;;;;;;;5.95;3.50;;;0.30;99.90;;;;;;4821901;29;20870;-85
2021/12/11 07:17:46;;;;;;;6.85;3.42;;;0.30;99.90;;;;;;4839160;29;20419;-86
2021/12/11 07:20:15;;;;;;;7.93;3.58;;;0.30;99.90;;;;;;4823926;29;20914;-86
2021/12/11 07:22:44;;;;;;;7.10;3.97;;;0.30;99.90;;;;;;4839092;29;20420;-87
2021/12/11 07:25:26;;;;;;;5.80;3.28;;;0.30;99.90;;;;;;4808986;29;20506;-87
2021/12/11 07:27:56;;;;;;;5.13;3.10;;;0.30;99.90;;;;;;4831852;29;20430;-86
2021/12/11 07:30:24;;;;;;;6.20;3.33;;;0.30;99.90;;;;;;4820699;29;20889;-86
2021/12/11 07:32:57;;;;;;;5.93;3.33;;;0.30;99.90;;;;;;4820909;29;20425;-87
2021/12/11 07:35:25;;;;;;;6.03;3.17;;;0.30;99.90;;;;;;4824052;29;20524;-87
2021/12/11 07:37:54;;;;;;;5.28;2.70;;;0.30;99.90;;;;;;4838501;29;20412;-86
2021/12/11 07:40:25;;;;;;;6.32;3.60;;;0.30;99.90;;;;;;4820549;29;20450;-86
2021/12/11 07:42:54;;;;;;;8.02;4.00;;;0.40;99.90;;;;;;4823670;29;20428;-86
2021/12/11 07:45:23;;;;;;;7.97;4.20;;;0.40;99.90;;;;;;4838858;29;20875;-86
2021/12/11 07:47:51;;;;;;;5.50;3.17;;;0.40;99.90;;;;;;4824750;29;20404;-86
2021/12/11 07:50:20;;;;;;;6.72;3.45;;;0.40;99.90;;;;;;4808657;29;20507;-86
2021/12/11 07:52:48;;;;;;;6.40;3.60;;;0.30;99.90;;;;;;4823198;29;20416;-86
2021/12/11 07:55:17;;;;;;;6.85;3.70;;;0.40;99.90;;;;;;4823682;29;20415;-87
2021/12/11 07:57:45;;;;;;;10.27;4.80;;;0.40;99.90;;;;;;4823247;29;20431;-85
2021/12/11 08:00:17;;;;;;;8.55;4.32;;;0.40;99.90;;;;;;4808581;29;20416;-86
2021/12/11 08:02:46;;;;;;;8.88;4.45;;;0.40;99.90;;;;;;4834492;29;20428;-87
2021/12/11 08:05:15;;;;;;;7.57;3.40;;;0.40;99.90;;;;;;4823056;29;20856;-86
2021/12/11 08:07:43;;;;;;;8.45;4.35;;;0.40;99.90;;;;;;4823211;29;20779;-86
2021/12/11 08:10:15;;;;;;;6.47;3.93;;;0.40;99.90;;;;;;4808067;29;20408;-86
2021/12/11 08:12:44;;;;;;;5.97;3.10;;;0.40;99.90;;;;;;4824355;29;20911;-86
2021/12/11 08:15:13;;;;;;;8.55;4.22;;;0.40;99.90;;;;;;4822913;29;20468;-85
2021/12/11 08:17:42;;;;;;;7.87;3.67;;;0.40;99.90;;;;;;4822936;29;20503;-85
2021/12/11 08:20:12;;;;;;;7.32;3.92;;;0.40;99.90;;;;;;4822921;29;20426;-87
2021/12/11 08:22:40;;;;;;;5.73;3.20;;;0.40;99.90;;;;;;4807858;29;20515;-87
2021/12/11 08:25:09;;;;;;;6.00;3.60;;;0.40;99.90;;;;;;4822951;29;20880;-86
2021/12/11 08:27:37;;;;;;;7.13;3.67;;;0.50;99.90;;;;;;4807966;29;20934;-87
2021/12/11 08:30:06;;;;;;;6.20;3.60;;;0.50;99.90;;;;;;4807651;29;20491;-86
2021/12/11 08:32:34;;;;;;;6.40;3.60;;;0.50;99.90;;;;;;4822689;29;20485;-86
2021/12/11 08:35:07;;;;;;;8.90;4.07;;;0.40;99.90;;;;;;4812757;29;20417;-86
2021/12/11 08:37:37;;;;;;;7.15;3.90;;;0.40;99.90;;;;;;4806518;29;20424;-85
2021/12/11 08:40:10;;;;;;;8.32;3.95;;;0.50;99.90;;;;;;4785035;29;20888;-86
2021/12/11 08:42:38;;;;;;;7.78;3.92;;;0.50;99.90;;;;;;4814523;29;20401;-87
2021/12/11 08:45:10;;;;;;;6.75;3.63;;;0.50;99.90;;;;;;4834305;29;20408;-86
2021/12/11 08:47:41;;;;;;;6.57;3.75;;;0.50;99.90;;;;;;4822942;29;20404;-86
2021/12/11 08:50:13;;;;;;;7.28;4.15;;;0.50;99.90;;;;;;4822811;29;20411;-86
2021/12/11 08:52:44;;;;;;;7.50;4.18;;;0.50;99.90;;;;;;4823160;29;20491;-86
2021/12/11 08:55:36;;;;;;;6.82;4.07;;;0.50;99.90;;;;;;4837599;29;20432;-85
2021/12/11 08:58:06;;;;;;;6.13;3.65;;;0.50;99.90;;;;;;4823074;29;20420;-84
2021/12/11 09:00:45;;;;;;;7.75;4.25;;;0.50;99.90;;;;;;4822559;29;20424;-86
2021/12/11 09:03:32;;;;;;;7.50;3.97;;;0.60;99.90;;;;;;4822110;29;20899;-85
2021/12/11 09:06:22;;;;;;;8.40;4.25;;;0.60;99.90;;;;;;4817075;29;20974;-84
2021/12/11 09:08:54;;;;;;;6.93;4.15;;;0.60;99.90;;;;;;4822037;29;20405;-86
2021/12/11 09:11:29;;;;;;;6.35;3.50;;;0.60;99.90;;;;;;4855753;29;20463;-88
2021/12/11 09:14:13;;;;;;;8.00;4.60;;;0.60;99.90;;;;;;4855688;29;20406;-87
2021/12/11 09:17:00;;;;;;;7.05;3.90;;;0.60;99.90;;;;;;4856117;29;20419;-88
2021/12/11 09:19:37;;;;;;;7.70;3.70;;;0.60;99.90;;;;;;4855457;29;20509;-86
2021/12/11 09:22:09;;;;;;;8.38;3.85;;;0.60;99.90;;;;;;4823306;29;20408;-88
2021/12/11 09:24:51;;;;;;;7.55;4.13;;;0.60;99.90;;;;;;4821918;29;20423;-85
2021/12/11 09:27:28;;;;;;;405.55;323.92;;;0.60;99.90;;;;;;4821628;29;20488;-85
2021/12/11 09:30:02;;;;;;;212.25;176.23;;;0.60;99.90;;;;;;4818929;29;20504;-85
2021/12/11 09:32:38;;;;;;;482.30;414.80;;;0.70;99.90;;;;;;4818958;29;20422;-88
2021/12/11 09:35:15;;;;;;;57.70;52.10;;;0.70;99.90;;;;;;4833670;29;20425;-84
2021/12/11 09:37:45;;;;;;;42.17;37.58;;;0.70;99.90;;;;;;4820357;29;20472;-85
2021/12/11 09:40:22;;;;;;;48.67;44.23;;;0.70;99.90;;;;;;4834314;29;20472;-85
2021/12/11 09:42:50;;;;;;;50.45;46.08;;;0.70;99.90;;;;;;4788652;29;20487;-88
2021/12/11 09:45:22;;;;;;;44.53;40.22;;;0.70;99.90;;;;;;4813676;29;20402;-88
2021/12/11 09:47:56;;;;;;;15.27;12.53;;;0.70;99.90;;;;;;4788874;29;20511;-88
2021/12/11 09:50:31;;;;;;;12.15;10.52;;;0.70;99.90;;;;;;4819176;29;20406;-87
2021/12/11 09:52:59;;;;;;;9.55;7.45;;;0.70;99.90;;;;;;4803656;29;20453;-86
2021/12/11 09:55:32;;;;;;;14.27;12.88;;;0.70;99.90;;;;;;4818831;29;20409;-86
2021/12/11 09:58:05;;;;;;;12.38;8.63;;;0.80;99.90;;;;;;4804452;29;20912;-88
2021/12/11 10:00:41;;;;;;;12.70;11.35;;;0.80;99.90;;;;;;4821266;29;20439;-86
2021/12/11 10:03:10;;;;;;;9.25;6.75;;;0.80;99.90;;;;;;4815642;29;20443;-85
2021/12/11 10:05:46;;;;;;;6.70;5.22;;;0.80;99.90;;;;;;4821515;29;20956;-85
2021/12/11 10:08:32;;;;;;;10.33;7.60;;;0.80;99.90;;;;;;4837075;29;20419;-86
2021/12/11 10:11:05;;;;;;;7.87;6.70;;;0.80;99.90;;;;;;4822694;29;20432;-85
2021/12/11 10:13:38;;;;;;;13.73;12.40;;;0.80;99.90;;;;;;4822741;29;20472;-86
2021/12/11 10:16:09;;;;;;;7.30;6.38;;;0.80;99.90;;;;;;4821943;29;20436;-85
2021/12/11 10:18:38;;;;;;;6.57;5.05;;;0.80;99.90;;;;;;4824858;29;20419;-87
2021/12/11 10:21:12;;;;;;;10.70;8.07;;;0.80;99.90;;;;;;4817389;29;20423;-86
2021/12/11 10:23:43;;;;;;;11.32;6.07;;;0.80;99.90;;;;;;4807947;29;20486;-85
2021/12/11 10:26:13;;;;;;;7.22;5.30;;;0.80;99.90;;;;;;4816475;29;20473;-84
2021/12/11 10:28:46;;;;;;;6.50;4.78;;;0.90;99.90;;;;;;4803329;29;20513;-86
2021/12/11 10:31:21;;;;;;;7.57;6.00;;;0.90;99.90;;;;;;4822535;29;20426;-87
2021/12/11 10:33:49;;;;;;;14.15;12.75;;;0.90;99.90;;;;;;4821656;29;20500;-87
2021/12/11 10:36:25;;;;;;;7.30;6.25;;;0.90;99.90;;;;;;4809809;29;20424;-87
2021/12/11 10:38:55;;;;;;;6.38;4.95;;;0.90;99.90;;;;;;4839557;29;20476;-88
2021/12/11 10:41:27;;;;;;;12.65;11.27;;;0.90;99.90;;;;;;4824773;29;20436;-87
2021/12/11 10:44:11;;;;;;;8.60;7.22;;;0.90;99.90;;;;;;4808506;29;20434;-87
2021/12/11 10:46:46;;;;;;;12.25;11.05;;;0.90;99.90;;;;;;4839869;29;20912;-88
2021/12/11 10:49:15;;;;;;;10.05;8.00;;;0.90;99.90;;;;;;4839915;29;20404;-87
2021/12/11 10:51:57;;;;;;;16.58;14.98;;;0.90;99.90;;;;;;4839875;29;20469;-88
2021/12/11 10:54:26;;;;;;;5.40;3.83;;;1.00;99.90;;;;;;4839785;29;20426;-87
2021/12/11 10:56:55;;;;;;;15.30;13.90;;;0.90;99.90;;;;;;4824761;29;20456;-88
2021/12/11 10:59:28;;;;;;;7.38;6.68;;;1.00;99.90;;;;;;4839326;29;20434;-87
2021/12/11 11:02:14;;;;;;;5.03;3.40;;;1.00;99.90;;;;;;4821988;29;21017;-88
2021/12/11 11:04:51;;;;;;;5.93;4.65;;;0.90;99.90;;;;;;4809575;29;20818;-88
2021/12/11 11:07:20;;;;;;;5.83;4.40;;;1.00;99.90;;;;;;4809411;29;20423;-88
2021/12/11 11:09:49;;;;;;;5.80;4.57;;;0.90;99.90;;;;;;4809689;29;20407;-88
2021/12/11 11:12:20;;;;;;;4.68;3.35;;;1.00;99.90;;;;;;4809413;29;20440;-88
2021/12/11 11:14:53;;;;;;;3.70;2.60;;;1.00;99.90;;;;;;4824351;29;20472;-88
2021/12/11 11:17:26;;;;;;;3.90;2.50;;;1.00;99.90;;;;;;4824275;29;20418;-87
2021/12/11 11:19:54;;;;;;;3.35;1.90;;;0.90;99.90;;;;;;4809455;29;20498;-87
2021/12/11 11:22:29;;;;;;;5.03;3.10;;;0.90;99.90;;;;;;4824518;29;20773;-88
2021/12/11 11:25:10;;;;;;;6.15;5.55;;;1.00;99.90;;;;;;4809226;29;20420;-88
2021/12/11 11:27:40;;;;;;;11.02;9.93;;;1.00;99.90;;;;;;4822042;29;20884;-88
2021/12/11 11:30:13;;;;;;;4.30;2.60;;;1.00;99.90;;;;;;4823908;29;20460;-88
2021/12/11 11:32:41;;;;;;;3.73;2.87;;;1.00;99.90;;;;;;4809207;29;20783;-88
2021/12/11 11:35:18;;;;;;;6.97;5.47;;;1.00;99.90;;;;;;4809558;29;20412;-88
2021/12/11 11:37:51;;;;;;;56.53;51.53;;;1.00;99.90;;;;;;4808976;29;20430;-88
2021/12/11 11:40:23;;;;;;;13.05;11.75;;;1.00;99.90;;;;;;4839389;29;20407;-89
2021/12/11 11:42:52;;;;;;;10.57;9.60;;;1.10;99.90;;;;;;4839279;29;20404;-89
2021/12/11 11:45:20;;;;;;;7.38;6.65;;;1.10;99.90;;;;;;4808198;29;20506;-88
2021/12/11 11:47:48;;;;;;;5.22;3.60;;;1.10;99.90;;;;;;4809122;29;20408;-88
2021/12/11 11:50:19;;;;;;;6.22;5.63;;;1.10;99.90;;;;;;4824966;29;20408;-88
2021/12/11 11:52:47;;;;;;;6.47;5.53;;;1.10;99.90;;;;;;4839114;29;20419;-88
2021/12/11 11:55:20;;;;;;;4.85;3.97;;;1.10;99.90;;;;;;4823935;29;20423;-88
2021/12/11 11:57:51;;;;;;;3.97;2.50;;;1.10;99.90;;;;;;4837908;29;20426;-88
2021/12/11 12:00:18;;;;;;;6.18;4.53;;;1.10;99.90;;;;;;4822864;29;20472;-89
2021/12/11 12:02:46;;;;;;;5.50;3.30;;;1.10;99.90;;;;;;4823747;29;20420;-88
2021/12/11 12:05:14;;;;;;;5.88;4.47;;;1.10;99.90;;;;;;4808292;29;20423;-88
2021/12/11 12:07:42;;;;;;;6.60;4.93;;;1.10;99.90;;;;;;4838636;29;20457;-88
2021/12/11 12:10:20;;;;;;;33.20;30.13;;;1.20;99.90;;;;;;4832310;29;20486;-87
2021/12/11 12:12:49;;;;;;;15.00;13.70;;;1.20;99.90;;;;;;4820776;29;20415;-87
2021/12/11 12:15:27;;;;;;;10.95;9.88;;;1.20;99.90;;;;;;4822823;29;20419;-87
2021/12/11 12:17:56;;;;;;;11.60;10.60;;;1.20;99.90;;;;;;4837880;29;20420;-88
2021/12/11 12:20:25;;;;;;;5.47;4.95;;;1.20;99.90;;;;;;4822583;29;20804;-87
2021/12/11 12:22:55;;;;;;;5.03;3.97;;;1.20;99.90;;;;;;4819605;29;20422;-87
2021/12/11 12:25:25;;;;;;;14.10;12.70;;;1.20;99.90;;;;;;4804699;29;20905;-87
2021/12/11 12:27:54;;;;;;;7.57;6.47;;;1.20;99.90;;;;;;4822722;29;20446;-87
2021/12/11 12:30:29;;;;;;;5.78;3.13;;;1.20;99.90;;;;;;4838198;29;20465;-87
2021/12/11 12:33:02;;;;;;;5.97;3.13;;;1.30;99.90;;;;;;4823024;29;20466;-87
2021/12/11 12:35:30;;;;;;;7.15;4.47;;;1.20;99.90;;;;;;4805489;29;20984;-87
2021/12/11 12:38:00;;;;;;;8.25;5.43;;;1.20;99.90;;;;;;4807304;29;20413;-87
2021/12/11 12:40:46;;;;;;;11.88;10.68;;;1.20;99.90;;;;;;4814390;29;20490;-87
2021/12/11 12:43:42;;;;;;;7.78;6.60;;;1.20;99.90;;;;;;4837877;29;20435;-86
2021/12/11 12:46:27;;;;;;;7.57;6.28;;;1.20;99.90;;;;;;4818222;29;20419;-87
2021/12/11 12:48:56;;;;;;;11.95;10.85;;;1.30;99.90;;;;;;4837613;29;20903;-86
2021/12/11 12:51:24;;;;;;;7.87;6.37;;;1.30;99.90;;;;;;4822650;29;20767;-86
2021/12/11 12:53:56;;;;;;;4.53;3.80;;;1.30;99.90;;;;;;4805561;29;20490;-86
2021/12/11 12:56:36;;;;;;;3.85;2.78;;;1.30;99.90;;;;;;4817478;29;20444;-87
2021/12/11 12:59:10;;;;;;;6.22;5.05;;;1.30;99.90;;;;;;4822401;29;20435;-87
2021/12/11 13:01:40;;;;;;;6.22;4.53;;;1.30;99.90;;;;;;4837525;29;20408;-86
2021/12/11 13:04:10;;;;;;;4.93;3.25;;;1.30;99.90;;;;;;4837481;29;20958;-89
2021/12/11 13:06:46;;;;;;;4.50;2.97;;;1.40;99.90;;;;;;4832467;29;20418;-87
2021/12/11 13:09:19;;;;;;;12.30;11.05;;;1.40;99.90;;;;;;4807561;29;20404;-89
2021/12/11 13:12:06;;;;;;;5.20;3.97;;;1.40;99.90;;;;;;4838000;29;20427;-88
2021/12/11 13:14:35;;;;;;;4.78;2.70;;;1.40;99.90;;;;;;4837574;29;20408;-87
2021/12/11 13:17:11;;;;;;;3.80;2.67;;;1.40;99.90;;;;;;4837623;29;20903;-87
2021/12/11 13:19:47;;;;;;;4.45;2.80;;;1.40;99.90;;;;;;4837573;29;20419;-89
2021/12/11 13:22:18;;;;;;;5.20;3.17;;;1.40;99.90;;;;;;4831836;29;20428;-88
2021/12/11 13:24:55;;;;;;;5.18;3.38;;;1.40;99.90;;;;;;4805862;29;20908;-88
2021/12/11 13:27:26;;;;;;;5.65;3.40;;;1.40;99.90;;;;;;4805566;29;20430;-87
2021/12/11 13:29:57;;;;;;;5.18;3.28;;;1.50;99.90;;;;;;4827750;29;20525;-88
2021/12/11 13:32:30;;;;;;;5.50;3.33;;;1.50;99.90;;;;;;4811305;29;20413;-87
2021/12/11 13:35:04;;;;;;;8.27;4.30;;;1.50;99.90;;;;;;4796106;29;20429;-87